createdAt,value
2019-03-01T00:00:16.158Z,1006.69
2019-03-01T00:01:16.161Z,1006.67
2019-03-01T00:02:16.125Z,1006.67
2019-03-01T00:03:16.105Z,1006.65
2019-03-01T00:04:16.113Z,1006.61
2019-03-01T00:05:16.102Z,1006.60
2019-03-01T00:06:16.076Z,1006.63
2019-03-01T00:07:16.096Z,1006.58
2019-03-01T00:08:16.093Z,1006.59
2019-03-01T00:09:16.071Z,1006.59
2019-03-01T00:10:16.058Z,1006.61
2019-03-01T00:11:16.018Z,1006.57
2019-03-01T00:12:16.055Z,1006.57
2019-03-01T00:13:16.020Z,1006.52
2019-03-01T00:14:16.003Z,1006.52
2019-03-01T00:15:16.029Z,1006.52
2019-03-01T00:16:15.987Z,1006.57
2019-03-01T00:17:15.954Z,1006.54
2019-03-01T00:18:15.948Z,1006.51
2019-03-01T00:19:15.938Z,1006.51
2019-03-01T00:20:15.989Z,1006.49
2019-03-01T00:21:15.911Z,1006.50
2019-03-01T00:22:15.897Z,1006.51
2019-03-01T00:23:15.899Z,1006.45
2019-03-01T00:24:15.882Z,1006.50
2019-03-01T00:25:15.982Z,1006.46
2019-03-01T00:26:15.858Z,1006.44
2019-03-01T00:27:15.845Z,1006.42
2019-03-01T00:28:15.850Z,1006.42
2019-03-01T00:29:15.831Z,1006.46
2019-03-01T00:30:15.884Z,1006.42
2019-03-01T00:31:15.866Z,1006.48
2019-03-01T00:32:15.809Z,1006.45
2019-03-01T00:33:15.801Z,1006.43
2019-03-01T00:34:15.772Z,1006.44
2019-03-01T00:35:15.817Z,1006.40
2019-03-01T00:36:15.780Z,1006.39
2019-03-01T00:37:15.799Z,1006.40
2019-03-01T00:38:15.787Z,1006.37
2019-03-01T00:39:15.752Z,1006.41
2019-03-01T00:40:15.699Z,1006.32
2019-03-01T00:41:15.705Z,1006.37
2019-03-01T00:42:15.690Z,1006.35
2019-03-01T00:43:15.677Z,1006.34
2019-03-01T00:44:15.669Z,1006.29
2019-03-01T00:45:15.651Z,1006.32
2019-03-01T00:46:15.664Z,1006.28
2019-03-01T00:47:15.670Z,1006.31
2019-03-01T00:48:15.610Z,1006.29
2019-03-01T00:49:15.617Z,1006.29
2019-03-01T00:50:15.604Z,1006.24
2019-03-01T00:51:15.601Z,1006.25
2019-03-01T00:52:15.603Z,1006.26
2019-03-01T00:53:15.569Z,1006.27
2019-03-01T00:54:15.551Z,1006.25
2019-03-01T00:55:15.621Z,1006.24
2019-03-01T00:56:15.535Z,1006.21
2019-03-01T00:57:15.525Z,1006.22
2019-03-01T00:58:15.498Z,1006.21
2019-03-01T00:59:15.502Z,1006.18
2019-03-01T01:00:15.482Z,1006.21
2019-03-01T01:01:15.496Z,1006.25
2019-03-01T01:02:15.472Z,1006.17
2019-03-01T01:03:15.471Z,1006.18
2019-03-01T01:04:15.435Z,1006.19
2019-03-01T01:05:15.444Z,1006.16
2019-03-01T01:06:15.419Z,1006.13
2019-03-01T01:07:15.398Z,1006.14
2019-03-01T01:08:15.393Z,1006.08
2019-03-01T01:09:15.390Z,1006.11
2019-03-01T01:10:15.401Z,1006.07
2019-03-01T01:11:15.381Z,1006.05
2019-03-01T01:12:15.353Z,1006.04
2019-03-01T01:13:15.338Z,1006.02
2019-03-01T01:14:15.323Z,1006.05
2019-03-01T01:15:15.324Z,1006.04
2019-03-01T01:16:15.377Z,1006.04
2019-03-01T01:17:15.292Z,1006.02
2019-03-01T01:18:15.287Z,1006.01
2019-03-01T01:19:15.263Z,1005.98
2019-03-01T01:20:15.284Z,1005.99
2019-03-01T01:21:15.263Z,1005.98
2019-03-01T01:22:15.247Z,1005.97
2019-03-01T01:23:15.248Z,1005.98
2019-03-01T01:24:15.240Z,1005.92
2019-03-01T01:25:15.317Z,1005.91
2019-03-01T01:26:15.221Z,1005.91
2019-03-01T01:27:15.291Z,1005.90
2019-03-01T01:28:15.176Z,1005.87
2019-03-01T01:29:15.189Z,1005.83
2019-03-01T01:30:15.197Z,1005.86
2019-03-01T01:31:15.190Z,1005.84
2019-03-01T01:32:15.163Z,1005.83
2019-03-01T01:33:15.119Z,1005.83
2019-03-01T01:34:15.125Z,1005.80
2019-03-01T01:35:15.103Z,1005.78
2019-03-01T01:36:15.139Z,1005.81
2019-03-01T01:37:15.102Z,1005.77
2019-03-01T01:38:15.134Z,1005.80
2019-03-01T01:39:15.049Z,1005.76
2019-03-01T01:40:15.074Z,1005.76
2019-03-01T01:41:15.089Z,1005.76
2019-03-01T01:42:15.030Z,1005.76
2019-03-01T01:43:15.009Z,1005.69
2019-03-01T01:44:15.020Z,1005.71
2019-03-01T01:45:15.014Z,1005.70
2019-03-01T01:46:14.981Z,1005.69
2019-03-01T01:47:14.957Z,1005.66
2019-03-01T01:48:14.951Z,1005.66
2019-03-01T01:49:14.962Z,1005.69
2019-03-01T01:50:14.955Z,1005.69
2019-03-01T01:51:14.950Z,1005.64
2019-03-01T01:52:14.928Z,1005.68
2019-03-01T01:53:14.890Z,1005.61
2019-03-01T01:54:14.958Z,1005.63
2019-03-01T01:55:14.926Z,1005.65
2019-03-01T01:56:14.855Z,1005.63
2019-03-01T01:57:14.849Z,1005.59
2019-03-01T01:58:14.839Z,1005.58
2019-03-01T01:59:14.894Z,1005.57
2019-03-01T02:00:14.812Z,1005.59
2019-03-01T02:01:14.797Z,1005.54
2019-03-01T02:02:14.865Z,1005.56
2019-03-01T02:03:14.769Z,1005.56
2019-03-01T02:04:14.779Z,1005.56
2019-03-01T02:05:14.749Z,1005.52
2019-03-01T02:06:14.735Z,1005.48
2019-03-01T02:07:14.741Z,1005.47
2019-03-01T02:08:14.733Z,1005.50
2019-03-01T02:09:14.712Z,1005.53
2019-03-01T02:10:14.735Z,1005.53
2019-03-01T02:11:14.760Z,1005.44
2019-03-01T02:12:14.770Z,1005.40
2019-03-01T02:13:14.683Z,1005.44
2019-03-01T02:14:14.669Z,1005.40
2019-03-01T02:15:14.657Z,1005.43
2019-03-01T02:16:14.631Z,1005.39
2019-03-01T02:17:14.640Z,1005.43
2019-03-01T02:18:14.609Z,1005.43
2019-03-01T02:19:14.594Z,1005.38
2019-03-01T02:20:14.599Z,1005.42
2019-03-01T02:21:14.627Z,1005.38
2019-03-01T02:22:14.593Z,1005.41
2019-03-01T02:23:14.602Z,1005.35
2019-03-01T02:24:14.545Z,1005.38
2019-03-01T02:25:14.553Z,1005.37
2019-03-01T02:26:14.513Z,1005.42
2019-03-01T02:27:14.543Z,1005.37
2019-03-01T02:28:14.500Z,1005.35
2019-03-01T02:29:14.491Z,1005.36
2019-03-01T02:30:14.495Z,1005.32
2019-03-01T02:31:14.505Z,1005.29
2019-03-01T02:32:14.470Z,1005.30
2019-03-01T02:33:14.465Z,1005.29
2019-03-01T02:34:14.445Z,1005.28
2019-03-01T02:35:14.422Z,1005.29
2019-03-01T02:36:14.471Z,1005.25
2019-03-01T02:37:14.413Z,1005.20
2019-03-01T02:38:14.391Z,1005.21
2019-03-01T02:39:14.384Z,1005.20
2019-03-01T02:40:14.401Z,1005.19
2019-03-01T02:41:14.412Z,1005.17
2019-03-01T02:42:14.365Z,1005.14
2019-03-01T02:43:14.435Z,1005.15
2019-03-01T02:44:14.322Z,1005.14
2019-03-01T02:45:14.351Z,1005.14
2019-03-01T02:46:14.297Z,1005.15
2019-03-01T02:47:14.293Z,1005.14
2019-03-01T02:48:14.280Z,1005.11
2019-03-01T02:49:14.302Z,1005.13
2019-03-01T02:50:14.391Z,1005.07
2019-03-01T02:51:14.256Z,1005.05
2019-03-01T02:52:14.238Z,1005.07
2019-03-01T02:53:14.244Z,1005.03
2019-03-01T02:54:14.213Z,1004.97
2019-03-01T02:55:14.281Z,1004.95
2019-03-01T02:56:14.225Z,1004.95
2019-03-01T02:57:14.178Z,1004.98
2019-03-01T02:58:14.181Z,1004.97
2019-03-01T02:59:14.165Z,1004.93
2019-03-01T03:00:14.199Z,1004.96
2019-03-01T03:01:14.143Z,1004.91
2019-03-01T03:02:14.127Z,1004.93
2019-03-01T03:03:14.129Z,1004.94
2019-03-01T03:04:14.106Z,1004.92
2019-03-01T03:05:14.114Z,1004.91
2019-03-01T03:06:14.075Z,1004.91
2019-03-01T03:07:14.069Z,1004.94
2019-03-01T03:08:14.115Z,1004.91
2019-03-01T03:09:14.043Z,1004.91
2019-03-01T03:10:14.046Z,1004.90
2019-03-01T03:11:14.032Z,1004.90
2019-03-01T03:12:14.030Z,1004.88
2019-03-01T03:13:14.043Z,1004.86
2019-03-01T03:14:14.020Z,1004.85
2019-03-01T03:15:13.969Z,1004.84
2019-03-01T03:16:13.974Z,1004.84
2019-03-01T03:17:13.948Z,1004.82
2019-03-01T03:18:13.946Z,1004.81
2019-03-01T03:19:13.923Z,1004.82
2019-03-01T03:20:13.966Z,1004.85
2019-03-01T03:21:13.976Z,1004.87
2019-03-01T03:22:13.895Z,1004.84
2019-03-01T03:23:13.902Z,1004.82
2019-03-01T03:24:13.871Z,1004.85
2019-03-01T03:25:13.931Z,1004.83
2019-03-01T03:26:13.861Z,1004.82
2019-03-01T03:27:13.845Z,1004.80
2019-03-01T03:28:13.877Z,1004.82
2019-03-01T03:29:13.819Z,1004.81
2019-03-01T03:30:13.807Z,1004.77
2019-03-01T03:31:13.905Z,1004.81
2019-03-01T03:32:13.799Z,1004.78
2019-03-01T03:33:13.773Z,1004.77
2019-03-01T03:34:13.788Z,1004.81
2019-03-01T03:35:13.851Z,1004.78
2019-03-01T03:36:13.777Z,1004.78
2019-03-01T03:37:13.727Z,1004.75
2019-03-01T03:38:13.708Z,1004.76
2019-03-01T03:39:13.729Z,1004.76
2019-03-01T03:40:13.701Z,1004.73
2019-03-01T03:41:13.685Z,1004.75
2019-03-01T03:42:13.669Z,1004.74
2019-03-01T03:43:13.664Z,1004.71
2019-03-01T03:44:13.663Z,1004.73
2019-03-01T03:45:13.637Z,1004.71
2019-03-01T03:46:13.670Z,1004.70
2019-03-01T03:47:13.637Z,1004.72
2019-03-01T03:48:13.604Z,1004.72
2019-03-01T03:49:13.613Z,1004.71
2019-03-01T03:50:13.579Z,1004.70
2019-03-01T03:51:13.593Z,1004.68
2019-03-01T03:52:13.573Z,1004.69
2019-03-01T03:53:13.666Z,1004.68
2019-03-01T03:54:13.546Z,1004.69
2019-03-01T03:55:13.598Z,1004.71
2019-03-01T03:56:13.558Z,1004.70
2019-03-01T03:57:13.509Z,1004.70
2019-03-01T03:58:13.495Z,1004.67
2019-03-01T03:59:13.484Z,1004.67
2019-03-01T04:00:13.464Z,1004.67
2019-03-01T04:01:13.462Z,1004.66
2019-03-01T04:02:13.536Z,1004.67
2019-03-01T04:03:13.436Z,1004.69
2019-03-01T04:04:13.428Z,1004.67
2019-03-01T04:05:13.416Z,1004.69
2019-03-01T04:06:13.401Z,1004.65
2019-03-01T04:07:13.388Z,1004.66
2019-03-01T04:08:13.379Z,1004.65
2019-03-01T04:09:13.394Z,1004.65
2019-03-01T04:10:13.356Z,1004.68
2019-03-01T04:11:13.389Z,1004.65
2019-03-01T04:12:13.358Z,1004.68
2019-03-01T04:13:13.353Z,1004.70
2019-03-01T04:14:13.435Z,1004.69
2019-03-01T04:15:13.319Z,1004.68
2019-03-01T04:16:13.316Z,1004.70
2019-03-01T04:17:13.323Z,1004.70
2019-03-01T04:18:13.267Z,1004.64
2019-03-01T04:19:13.309Z,1004.68
2019-03-01T04:20:13.298Z,1004.64
2019-03-01T04:21:13.269Z,1004.62
2019-03-01T04:22:13.249Z,1004.60
2019-03-01T04:23:13.257Z,1004.65
2019-03-01T04:24:13.223Z,1004.65
2019-03-01T04:25:13.322Z,1004.63
2019-03-01T04:26:13.267Z,1004.62
2019-03-01T04:27:13.217Z,1004.61
2019-03-01T04:28:13.159Z,1004.60
2019-03-01T04:29:13.220Z,1004.62
2019-03-01T04:30:13.154Z,1004.64
2019-03-01T04:31:13.127Z,1004.57
2019-03-01T04:32:13.128Z,1004.54
2019-03-01T04:33:13.104Z,1004.56
2019-03-01T04:34:13.151Z,1004.57
2019-03-01T04:35:13.105Z,1004.54
2019-03-01T04:36:13.076Z,1004.56
2019-03-01T04:37:13.063Z,1004.55
2019-03-01T04:38:13.059Z,1004.52
2019-03-01T04:39:13.029Z,1004.53
2019-03-01T04:40:13.135Z,1004.52
2019-03-01T04:41:13.016Z,1004.52
2019-03-01T04:42:12.997Z,1004.50
2019-03-01T04:43:12.988Z,1004.46
2019-03-01T04:44:13.018Z,1004.52
2019-03-01T04:45:13.008Z,1004.52
2019-03-01T04:46:12.970Z,1004.44
2019-03-01T04:47:12.963Z,1004.49
2019-03-01T04:48:12.938Z,1004.50
2019-03-01T04:49:12.917Z,1004.48
2019-03-01T04:50:12.925Z,1004.50
2019-03-01T04:51:12.909Z,1004.46
2019-03-01T04:52:12.908Z,1004.44
2019-03-01T04:53:12.904Z,1004.49
2019-03-01T04:54:12.890Z,1004.45
2019-03-01T04:55:12.952Z,1004.45
2019-03-01T04:56:12.875Z,1004.45
2019-03-01T04:57:12.836Z,1004.52
2019-03-01T04:58:12.863Z,1004.49
2019-03-01T04:59:12.812Z,1004.47
2019-03-01T05:00:12.804Z,1004.49
2019-03-01T05:01:12.783Z,1004.47
2019-03-01T05:02:12.782Z,1004.49
2019-03-01T05:03:12.760Z,1004.48
2019-03-01T05:04:12.767Z,1004.47
2019-03-01T05:05:12.758Z,1004.45
2019-03-01T05:06:12.802Z,1004.47
2019-03-01T05:07:12.720Z,1004.48
2019-03-01T05:08:12.703Z,1004.45
2019-03-01T05:09:12.701Z,1004.44
2019-03-01T05:10:12.695Z,1004.41
2019-03-01T05:11:12.685Z,1004.45
2019-03-01T05:12:12.662Z,1004.45
2019-03-01T05:13:12.683Z,1004.47
2019-03-01T05:14:12.639Z,1004.42
2019-03-01T05:15:14.567Z,1004.46
2019-03-01T05:16:12.621Z,1004.46
2019-03-01T05:17:12.613Z,1004.52
2019-03-01T05:18:12.617Z,1004.48
2019-03-01T05:19:12.587Z,1004.48
2019-03-01T05:20:12.593Z,1004.51
2019-03-01T05:21:12.563Z,1004.54
2019-03-01T05:22:12.556Z,1004.56
2019-03-01T05:23:12.618Z,1004.53
2019-03-01T05:24:12.568Z,1004.52
2019-03-01T05:25:12.683Z,1004.55
2019-03-01T05:26:12.564Z,1004.53
2019-03-01T05:27:12.492Z,1004.56
2019-03-01T05:28:12.497Z,1004.57
2019-03-01T05:29:12.470Z,1004.52
2019-03-01T05:30:12.480Z,1004.56
2019-03-01T05:31:12.453Z,1004.55
2019-03-01T05:32:12.438Z,1004.52
2019-03-01T05:33:12.443Z,1004.55
2019-03-01T05:34:12.454Z,1004.53
2019-03-01T05:35:12.412Z,1004.53
2019-03-01T05:36:12.453Z,1004.60
2019-03-01T05:37:12.453Z,1004.61
2019-03-01T05:38:21.311Z,1004.58
2019-03-01T05:39:13.379Z,1004.63
2019-03-01T05:40:12.394Z,1004.64
2019-03-01T05:41:12.475Z,1004.68
2019-03-01T05:42:12.332Z,1004.68
2019-03-01T05:43:12.318Z,1004.70
2019-03-01T05:44:12.320Z,1004.67
2019-03-01T05:45:12.314Z,1004.69
2019-03-01T05:46:12.347Z,1004.66
2019-03-01T05:47:12.337Z,1004.68
2019-03-01T05:48:12.258Z,1004.68
2019-03-01T05:49:12.278Z,1004.73
2019-03-01T05:50:12.269Z,1004.71
2019-03-01T05:51:12.274Z,1004.72
2019-03-01T05:52:12.217Z,1004.72
2019-03-01T05:53:12.210Z,1004.78
2019-03-01T05:54:12.201Z,1004.76
2019-03-01T05:55:12.291Z,1004.80
2019-03-01T05:56:12.194Z,1004.80
2019-03-01T05:57:12.166Z,1004.76
2019-03-01T05:58:16.499Z,1004.77
2019-03-01T05:59:12.164Z,1004.80
2019-03-01T06:00:12.140Z,1004.80
2019-03-01T06:01:12.154Z,1004.81
2019-03-01T06:02:12.134Z,1004.80
2019-03-01T06:03:12.150Z,1004.84
2019-03-01T06:04:12.081Z,1004.85
2019-03-01T06:05:12.087Z,1004.90
2019-03-01T06:06:12.120Z,1004.84
2019-03-01T06:07:12.116Z,1004.89
2019-03-01T06:08:12.116Z,1004.87
2019-03-01T06:09:12.034Z,1004.92
2019-03-01T06:10:12.021Z,1004.91
2019-03-01T06:11:12.073Z,1004.90
2019-03-01T06:12:11.993Z,1004.88
2019-03-01T06:13:11.985Z,1004.89
2019-03-01T06:14:11.974Z,1004.90
2019-03-01T06:15:11.989Z,1004.88
2019-03-01T06:16:11.964Z,1004.94
2019-03-01T06:17:12.075Z,1004.90
2019-03-01T06:18:11.958Z,1004.89
2019-03-01T06:19:11.955Z,1004.92
2019-03-01T06:20:11.933Z,1004.94
2019-03-01T06:21:11.901Z,1004.94
2019-03-01T06:22:11.901Z,1004.95
2019-03-01T06:23:11.874Z,1004.95
2019-03-01T06:24:11.891Z,1004.93
2019-03-01T06:25:11.904Z,1004.96
2019-03-01T06:26:11.893Z,1004.97
2019-03-01T06:27:11.846Z,1005.01
2019-03-01T06:28:11.822Z,1004.99
2019-03-01T06:29:11.858Z,1005.04
2019-03-01T06:30:11.813Z,1005.02
2019-03-01T06:31:11.850Z,1005.06
2019-03-01T06:32:11.797Z,1004.96
2019-03-01T06:33:11.762Z,1005.01
2019-03-01T06:34:11.754Z,1005.01
2019-03-01T06:35:11.745Z,1004.97
2019-03-01T06:36:11.729Z,1005.01
2019-03-01T06:37:11.787Z,1005.05
2019-03-01T06:38:11.756Z,1005.04
2019-03-01T06:39:11.712Z,1005.04
2019-03-01T06:40:11.702Z,1005.02
2019-03-01T06:41:11.692Z,1005.09
2019-03-01T06:42:11.676Z,1005.07
2019-03-01T06:43:11.716Z,1005.08
2019-03-01T06:44:11.649Z,1005.07
2019-03-01T06:45:11.625Z,1005.12
2019-03-01T06:46:11.641Z,1005.14
2019-03-01T06:47:11.627Z,1005.14
2019-03-01T06:48:11.597Z,1005.14
2019-03-01T06:49:11.591Z,1005.13
2019-03-01T06:50:13.063Z,1005.16
2019-03-01T06:51:11.576Z,1005.18
2019-03-01T06:52:11.567Z,1005.15
2019-03-01T06:53:11.565Z,1005.16
2019-03-01T06:54:11.543Z,1005.18
2019-03-01T06:55:11.522Z,1005.18
2019-03-01T06:56:11.553Z,1005.21
2019-03-01T06:57:11.518Z,1005.17
2019-03-01T06:58:11.513Z,1005.22
2019-03-01T06:59:11.487Z,1005.24
2019-03-01T07:00:11.510Z,1005.23
2019-03-01T07:01:11.455Z,1005.21
2019-03-01T07:02:11.450Z,1005.24
2019-03-01T07:03:11.442Z,1005.22
2019-03-01T07:04:11.513Z,1005.27
2019-03-01T07:05:11.436Z,1005.30
2019-03-01T07:06:11.395Z,1005.25
2019-03-01T07:07:11.479Z,1005.29
2019-03-01T07:08:11.376Z,1005.29
2019-03-01T07:09:11.369Z,1005.30
2019-03-01T07:10:11.376Z,1005.35
2019-03-01T07:11:11.346Z,1005.31
2019-03-01T07:12:11.330Z,1005.36
2019-03-01T07:13:11.340Z,1005.40
2019-03-01T07:14:11.328Z,1005.45
2019-03-01T07:15:11.295Z,1005.44
2019-03-01T07:16:11.284Z,1005.43
2019-03-01T07:17:11.273Z,1005.45
2019-03-01T07:18:11.274Z,1005.45
2019-03-01T07:19:11.257Z,1005.40
2019-03-01T07:20:12.660Z,1005.45
2019-03-01T07:21:11.233Z,1005.49
2019-03-01T07:22:11.220Z,1005.50
2019-03-01T07:23:11.245Z,1005.51
2019-03-01T07:24:11.358Z,1005.52
2019-03-01T07:25:11.274Z,1005.55
2019-03-01T07:26:11.181Z,1005.55
2019-03-01T07:27:12.404Z,1005.56
2019-03-01T07:28:11.175Z,1005.57
2019-03-01T07:29:11.171Z,1005.54
2019-03-01T07:30:11.145Z,1005.58
2019-03-01T07:31:11.130Z,1005.59
2019-03-01T07:32:11.117Z,1005.58
2019-03-01T07:33:11.187Z,1005.55
2019-03-01T07:34:11.107Z,1005.61
2019-03-01T07:35:11.086Z,1005.57
2019-03-01T07:36:11.100Z,1005.63
2019-03-01T07:37:11.055Z,1005.61
2019-03-01T07:38:11.081Z,1005.61
2019-03-01T07:39:11.046Z,1005.62
2019-03-01T07:40:11.023Z,1005.65
2019-03-01T07:41:11.012Z,1005.63
2019-03-01T07:42:11.073Z,1005.66
2019-03-01T07:43:11.021Z,1005.63
2019-03-01T07:44:10.974Z,1005.69
2019-03-01T07:45:11.030Z,1005.72
2019-03-01T07:46:10.950Z,1005.73
2019-03-01T07:47:10.949Z,1005.72
2019-03-01T07:48:10.971Z,1005.71
2019-03-01T07:49:10.920Z,1005.70
2019-03-01T07:50:10.906Z,1005.71
2019-03-01T07:51:10.935Z,1005.78
2019-03-01T07:52:10.898Z,1005.78
2019-03-01T07:53:10.907Z,1005.81
2019-03-01T07:54:13.379Z,1005.83
2019-03-01T07:55:11.922Z,1005.79
2019-03-01T07:56:10.853Z,1005.83
2019-03-01T07:57:11.428Z,1005.80
2019-03-01T07:58:10.836Z,1005.82
2019-03-01T07:59:10.816Z,1005.86
2019-03-01T08:00:14.021Z,1005.83
2019-03-01T08:01:10.792Z,1005.86
2019-03-01T08:02:10.806Z,1005.92
2019-03-01T08:03:11.792Z,1005.92
2019-03-01T08:04:10.757Z,1005.96
2019-03-01T08:05:10.792Z,1005.95
2019-03-01T08:06:13.459Z,1005.97
2019-03-01T08:07:10.723Z,1006.00
2019-03-01T08:08:10.834Z,1005.98
2019-03-01T08:09:10.701Z,1005.98
2019-03-01T08:10:10.703Z,1006.05
2019-03-01T08:11:10.694Z,1006.02
2019-03-01T08:12:10.745Z,1006.06
2019-03-01T08:13:10.652Z,1006.09
2019-03-01T08:14:10.889Z,1006.10
2019-03-01T08:15:10.630Z,1006.13
2019-03-01T08:16:10.621Z,1006.14
2019-03-01T08:17:10.622Z,1006.14
2019-03-01T08:18:10.700Z,1006.18
2019-03-01T08:19:10.598Z,1006.19
2019-03-01T08:20:10.599Z,1006.16
2019-03-01T08:21:11.445Z,1006.13
2019-03-01T08:22:10.563Z,1006.18
2019-03-01T08:23:10.584Z,1006.19
2019-03-01T08:24:11.101Z,1006.15
2019-03-01T08:25:10.640Z,1006.18
2019-03-01T08:26:10.511Z,1006.15
2019-03-01T08:27:11.154Z,1006.20
2019-03-01T08:28:10.487Z,1006.24
2019-03-01T08:29:10.495Z,1006.22
2019-03-01T08:30:11.328Z,1006.32
2019-03-01T08:31:10.452Z,1006.27
2019-03-01T08:32:10.447Z,1006.28
2019-03-01T08:33:10.429Z,1006.26
2019-03-01T08:34:10.438Z,1006.30
2019-03-01T08:35:10.466Z,1006.32
2019-03-01T08:36:10.402Z,1006.33
2019-03-01T08:37:10.393Z,1006.34
2019-03-01T08:38:10.416Z,1006.37
2019-03-01T08:39:10.422Z,1006.35
2019-03-01T08:40:11.527Z,1006.41
2019-03-01T08:41:10.344Z,1006.45
2019-03-01T08:42:10.335Z,1006.48
2019-03-01T08:43:13.000Z,1006.50
2019-03-01T08:44:10.319Z,1006.52
2019-03-01T08:45:10.341Z,1006.55
2019-03-01T08:46:10.517Z,1006.57
2019-03-01T08:47:10.277Z,1006.59
2019-03-01T08:48:10.268Z,1006.60
2019-03-01T08:49:11.309Z,1006.61
2019-03-01T08:50:10.250Z,1006.67
2019-03-01T08:51:10.288Z,1006.68
2019-03-01T08:52:10.240Z,1006.63
2019-03-01T08:53:11.514Z,1006.60
2019-03-01T08:54:10.221Z,1006.66
2019-03-01T08:55:10.276Z,1006.67
2019-03-01T08:56:11.053Z,1006.65
2019-03-01T08:57:10.231Z,1006.63
2019-03-01T08:58:10.152Z,1006.64
2019-03-01T08:59:10.164Z,1006.67
2019-03-01T09:00:10.137Z,1006.68
2019-03-01T09:01:10.122Z,1006.67
2019-03-01T09:02:11.909Z,1006.69
2019-03-01T09:03:10.113Z,1006.71
2019-03-01T09:04:13.302Z,1006.75
2019-03-01T09:05:11.074Z,1006.70
2019-03-01T09:06:10.109Z,1006.75
2019-03-01T09:07:10.062Z,1006.72
2019-03-01T09:08:10.050Z,1006.76
2019-03-01T09:09:10.038Z,1006.79
2019-03-01T09:10:10.085Z,1006.81
2019-03-01T09:11:10.370Z,1006.81
2019-03-01T09:12:10.018Z,1006.78
2019-03-01T09:13:09.991Z,1006.80
2019-03-01T09:14:09.997Z,1006.79
2019-03-01T09:15:10.016Z,1006.80
2019-03-01T09:16:09.955Z,1006.80
2019-03-01T09:17:09.964Z,1006.82
2019-03-01T09:18:11.551Z,1006.83
2019-03-01T09:19:09.935Z,1006.86
2019-03-01T09:20:09.935Z,1006.92
2019-03-01T09:21:12.951Z,1006.89
2019-03-01T09:22:09.891Z,1006.92
2019-03-01T09:23:21.184Z,1006.90
2019-03-01T09:24:10.889Z,1006.93
2019-03-01T09:25:09.933Z,1006.95
2019-03-01T09:26:09.874Z,1006.97
2019-03-01T09:27:09.839Z,1006.99
2019-03-01T09:28:09.831Z,1007.12
2019-03-01T09:29:13.013Z,1007.12
2019-03-01T09:30:10.816Z,1007.15
2019-03-01T09:31:09.798Z,1007.15
2019-03-01T09:32:09.795Z,1007.16
2019-03-01T09:33:09.781Z,1007.21
2019-03-01T09:34:09.777Z,1007.22
2019-03-01T09:35:09.797Z,1007.32
2019-03-01T09:36:09.737Z,1007.25
2019-03-01T09:37:09.745Z,1007.32
2019-03-01T09:38:11.356Z,1007.33
2019-03-01T09:39:09.711Z,1007.40
2019-03-01T09:40:09.699Z,1007.40
2019-03-01T09:41:09.679Z,1007.43
2019-03-01T09:42:12.419Z,1007.43
2019-03-01T09:43:10.692Z,1007.43
2019-03-01T09:44:09.657Z,1007.47
2019-03-01T09:45:10.429Z,1007.49
2019-03-01T09:46:09.628Z,1007.49
2019-03-01T09:47:09.635Z,1007.54
2019-03-01T09:48:12.242Z,1007.53
2019-03-01T09:49:09.595Z,1007.51
2019-03-01T09:50:09.619Z,1007.54
2019-03-01T09:51:10.722Z,1007.51
2019-03-01T09:52:09.579Z,1007.50
2019-03-01T09:53:09.569Z,1007.55
2019-03-01T09:54:10.267Z,1007.56
2019-03-01T09:55:09.525Z,1007.57
2019-03-01T09:56:12.729Z,1007.57
2019-03-01T09:57:12.384Z,1007.60
2019-03-01T09:58:10.505Z,1007.60
2019-03-01T09:59:09.478Z,1007.62
2019-03-01T10:00:09.507Z,1007.66
2019-03-01T10:01:09.469Z,1007.67
2019-03-01T10:02:09.450Z,1007.69
2019-03-01T10:03:09.441Z,1007.67
2019-03-01T10:04:09.427Z,1007.69
2019-03-01T10:05:09.443Z,1007.72
2019-03-01T10:06:09.450Z,1007.76
2019-03-01T10:07:09.396Z,1007.76
2019-03-01T10:08:09.388Z,1007.74
2019-03-01T10:09:09.370Z,1007.74
2019-03-01T10:10:09.363Z,1007.84
2019-03-01T10:11:09.360Z,1007.85
2019-03-01T10:12:09.348Z,1007.88
2019-03-01T10:13:09.338Z,1007.91
2019-03-01T10:14:09.332Z,1007.91
2019-03-01T10:15:09.308Z,1007.92
2019-03-01T10:16:09.344Z,1007.96
2019-03-01T10:17:09.277Z,1007.99
2019-03-01T10:18:09.269Z,1008.03
2019-03-01T10:19:09.287Z,1008.03
2019-03-01T10:20:09.253Z,1008.02
2019-03-01T10:21:09.258Z,1008.03
2019-03-01T10:22:09.225Z,1008.05
2019-03-01T10:23:09.222Z,1008.08
2019-03-01T10:24:09.218Z,1008.06
2019-03-01T10:25:09.204Z,1008.08
2019-03-01T10:26:13.777Z,1008.05
2019-03-01T10:27:09.182Z,1008.09
2019-03-01T10:28:09.157Z,1008.09
2019-03-01T10:29:09.159Z,1008.06
2019-03-01T10:30:09.137Z,1008.11
2019-03-01T10:31:09.132Z,1008.12
2019-03-01T10:32:09.116Z,1008.10
2019-03-01T10:33:09.116Z,1008.13
2019-03-01T10:34:09.113Z,1008.15
2019-03-01T10:35:09.127Z,1008.12
2019-03-01T10:36:09.086Z,1008.13
2019-03-01T10:37:09.066Z,1008.07
2019-03-01T10:38:09.049Z,1008.11
2019-03-01T10:39:09.045Z,1008.04
2019-03-01T10:40:09.029Z,1008.09
2019-03-01T10:41:09.049Z,1008.07
2019-03-01T10:42:09.013Z,1008.09
2019-03-01T10:43:08.994Z,1008.16
2019-03-01T10:44:08.980Z,1008.15
2019-03-01T10:45:08.977Z,1008.20
2019-03-01T10:46:08.973Z,1008.23
2019-03-01T10:47:08.958Z,1008.24
2019-03-01T10:48:08.958Z,1008.30
2019-03-01T10:49:08.954Z,1008.33
2019-03-01T10:50:08.921Z,1008.36
2019-03-01T10:51:08.915Z,1008.37
2019-03-01T10:52:08.902Z,1008.40
2019-03-01T10:53:08.925Z,1008.37
2019-03-01T10:54:08.871Z,1008.44
2019-03-01T10:55:08.878Z,1008.40
2019-03-01T10:56:08.908Z,1008.41
2019-03-01T10:57:08.848Z,1008.39
2019-03-01T10:58:08.837Z,1008.46
2019-03-01T10:59:08.832Z,1008.42
2019-03-01T11:00:08.847Z,1008.40
2019-03-01T11:01:08.862Z,1008.37
2019-03-01T11:02:08.805Z,1008.41
2019-03-01T11:03:08.775Z,1008.46
2019-03-01T11:04:08.808Z,1008.47
2019-03-01T11:05:08.777Z,1008.47
2019-03-01T11:06:08.786Z,1008.46
2019-03-01T11:07:08.754Z,1008.44
2019-03-01T11:08:08.737Z,1008.50
2019-03-01T11:09:08.734Z,1008.48
2019-03-01T11:10:08.699Z,1008.51
2019-03-01T11:11:08.697Z,1008.52
2019-03-01T11:12:08.699Z,1008.50
2019-03-01T11:13:08.692Z,1008.54
2019-03-01T11:14:08.651Z,1008.56
2019-03-01T11:15:08.643Z,1008.55
2019-03-01T11:16:08.707Z,1008.56
2019-03-01T11:17:08.657Z,1008.54
2019-03-01T11:18:08.640Z,1008.59
2019-03-01T11:19:08.685Z,1008.62
2019-03-01T11:20:08.586Z,1008.64
2019-03-01T11:21:08.573Z,1008.58
2019-03-01T11:22:08.569Z,1008.61
2019-03-01T11:23:08.553Z,1008.58
2019-03-01T11:24:08.549Z,1008.59
2019-03-01T11:25:08.533Z,1008.57
2019-03-01T11:26:08.588Z,1008.61
2019-03-01T11:27:12.884Z,1008.57
2019-03-01T11:28:10.439Z,1008.57
2019-03-01T11:29:08.589Z,1008.56
2019-03-01T11:30:08.474Z,1008.59
2019-03-01T11:31:08.461Z,1008.55
2019-03-01T11:32:08.474Z,1008.58
2019-03-01T11:33:08.452Z,1008.60
2019-03-01T11:34:08.433Z,1008.62
2019-03-01T11:35:08.441Z,1008.62
2019-03-01T11:36:08.403Z,1008.60
2019-03-01T11:37:08.402Z,1008.65
2019-03-01T11:38:08.404Z,1008.66
2019-03-01T11:39:08.435Z,1008.68
2019-03-01T11:40:08.366Z,1008.65
2019-03-01T11:41:08.373Z,1008.65
2019-03-01T11:42:08.378Z,1008.66
2019-03-01T11:43:08.419Z,1008.66
2019-03-01T11:44:08.351Z,1008.67
2019-03-01T11:45:08.303Z,1008.65
2019-03-01T11:46:08.297Z,1008.69
2019-03-01T11:47:08.292Z,1008.74
2019-03-01T11:48:08.272Z,1008.70
2019-03-01T11:49:08.263Z,1008.75
2019-03-01T11:50:08.318Z,1008.74
2019-03-01T11:51:08.286Z,1008.78
2019-03-01T11:52:08.319Z,1008.79
2019-03-01T11:53:08.219Z,1008.79
2019-03-01T11:54:08.231Z,1008.80
2019-03-01T11:55:08.196Z,1008.79
2019-03-01T11:56:08.421Z,1008.77
2019-03-01T11:57:08.186Z,1008.83
2019-03-01T11:58:08.191Z,1008.79
2019-03-01T11:59:08.148Z,1008.80
2019-03-01T12:00:08.138Z,1008.82
2019-03-01T12:01:16.854Z,1008.80
2019-03-01T12:02:09.268Z,1008.77
2019-03-01T12:03:08.134Z,1008.81
2019-03-01T12:04:08.098Z,1008.82
2019-03-01T12:05:08.124Z,1008.79